createdAt,value
2018-02-02T00:00:36.564Z,5.09
2018-02-02T00:03:05.204Z,5.18
2018-02-02T00:05:34.166Z,5.24
2018-02-02T00:08:04.307Z,5.20
2018-02-02T00:10:33.717Z,5.28
2018-02-02T00:13:01.266Z,5.52
2018-02-02T00:15:36.247Z,5.23
2018-02-02T00:18:03.729Z,5.37
2018-02-02T00:20:31.176Z,5.12
2018-02-02T00:22:58.645Z,5.13
2018-02-02T00:25:26.089Z,5.16
2018-02-02T00:27:53.602Z,4.95
2018-02-02T00:30:21.947Z,5.02
2018-02-02T00:32:49.392Z,5.09
2018-02-02T00:35:21.453Z,5.07
2018-02-02T00:37:48.886Z,5.01
2018-02-02T00:40:18.384Z,5.04
2018-02-02T00:42:45.878Z,5.06
2018-02-02T00:45:13.354Z,4.86
2018-02-02T00:47:40.813Z,4.82
2018-02-02T00:50:08.291Z,4.82
2018-02-02T00:52:35.760Z,4.87
2018-02-02T00:55:03.182Z,4.76
2018-02-02T00:57:30.810Z,4.76
2018-02-02T00:59:58.305Z,4.89
2018-02-02T01:02:25.744Z,4.92
2018-02-02T01:04:53.169Z,4.90
2018-02-02T01:07:20.610Z,5.13
2018-02-02T01:09:48.082Z,5.30
2018-02-02T01:12:15.620Z,5.09
2018-02-02T01:14:43.073Z,4.99
2018-02-02T01:17:10.592Z,5.02
2018-02-02T01:19:38.037Z,4.88
2018-02-02T01:22:05.467Z,4.87
2018-02-02T01:24:32.910Z,4.79
2018-02-02T01:27:00.337Z,4.91
2018-02-02T01:29:28.204Z,5.00
2018-02-02T01:31:55.833Z,4.67
2018-02-02T01:34:23.329Z,4.67
2018-02-02T01:36:50.765Z,5.08
2018-02-02T01:39:18.232Z,4.91
2018-02-02T01:41:45.708Z,4.88
2018-02-02T01:44:13.235Z,4.99
2018-02-02T01:46:40.674Z,4.89
2018-02-02T01:49:08.125Z,4.81
2018-02-02T01:51:35.719Z,4.70
2018-02-02T01:54:03.249Z,4.89
2018-02-02T01:56:30.686Z,4.88
2018-02-02T01:58:58.209Z,4.81
2018-02-02T02:01:25.749Z,4.93
2018-02-02T02:03:53.198Z,4.88
2018-02-02T02:06:20.813Z,4.98
2018-02-02T02:08:48.286Z,5.01
2018-02-02T02:11:15.829Z,4.83
2018-02-02T02:13:43.349Z,4.74
2018-02-02T02:16:11.103Z,4.73
2018-02-02T02:18:38.526Z,4.61
2018-02-02T02:21:05.992Z,4.95
2018-02-02T02:23:33.553Z,4.90
2018-02-02T02:26:01.256Z,4.74
2018-02-02T02:28:28.781Z,4.93
2018-02-02T02:30:56.332Z,4.96
2018-02-02T02:33:23.894Z,4.78
2018-02-02T02:35:51.410Z,4.69
2018-02-02T02:38:18.844Z,4.69
2018-02-02T02:40:46.422Z,4.62
2018-02-02T02:43:13.893Z,4.97
2018-02-02T02:45:41.344Z,4.75
2018-02-02T02:48:08.760Z,4.78
2018-02-02T02:50:36.257Z,4.74
2018-02-02T02:53:03.747Z,4.77
2018-02-02T02:55:31.193Z,4.70
2018-02-02T02:57:58.701Z,4.62
2018-02-02T03:00:26.290Z,4.94
2018-02-02T03:02:53.720Z,4.53
2018-02-02T03:05:21.161Z,4.70
2018-02-02T03:07:49.689Z,4.57
2018-02-02T03:10:21.038Z,4.73
2018-02-02T03:12:56.852Z,4.63
2018-02-02T03:15:25.261Z,4.54
2018-02-02T03:17:52.704Z,4.47
2018-02-02T03:20:20.121Z,4.72
2018-02-02T03:22:48.222Z,4.62
2018-02-02T03:25:15.688Z,4.80
2018-02-02T03:27:43.121Z,4.77
2018-02-02T03:30:10.548Z,4.57
2018-02-02T03:32:38.064Z,4.73
2018-02-02T03:35:05.773Z,4.82
2018-02-02T03:37:33.242Z,4.79
2018-02-02T03:40:01.626Z,4.67
2018-02-02T03:42:29.077Z,4.84
2018-02-02T03:44:56.540Z,4.97
2018-02-02T03:47:23.975Z,4.72
2018-02-02T03:49:51.451Z,4.79
2018-02-02T03:52:18.894Z,5.00
2018-02-02T03:54:46.351Z,4.87
2018-02-02T03:57:13.827Z,4.77
2018-02-02T03:59:43.306Z,4.82
2018-02-02T04:02:10.874Z,4.90
2018-02-02T04:04:39.387Z,4.69
2018-02-02T04:07:06.884Z,4.60
2018-02-02T04:09:34.370Z,4.72
2018-02-02T04:12:01.841Z,4.72
2018-02-02T04:14:29.294Z,4.63
2018-02-02T04:16:56.822Z,4.84
2018-02-02T04:19:24.267Z,4.74
2018-02-02T04:21:51.781Z,4.90
2018-02-02T04:24:19.287Z,5.18
2018-02-02T04:26:46.844Z,5.02
2018-02-02T04:29:14.325Z,5.03
2018-02-02T04:31:41.774Z,4.99
2018-02-02T04:34:09.436Z,4.92
2018-02-02T04:36:36.861Z,4.95
2018-02-02T04:39:04.578Z,4.99
2018-02-02T04:41:32.125Z,5.00
2018-02-02T04:43:59.576Z,4.93
2018-02-02T04:46:27.246Z,5.03
2018-02-02T04:48:54.726Z,5.23
2018-02-02T04:51:22.222Z,5.06
2018-02-02T04:53:49.752Z,5.23
2018-02-02T04:56:17.201Z,5.29
2018-02-02T04:58:44.678Z,5.30
2018-02-02T05:01:12.120Z,5.16
2018-02-02T05:03:39.629Z,5.05
2018-02-02T05:06:07.050Z,5.16
2018-02-02T05:08:34.476Z,5.16
2018-02-02T05:11:01.933Z,5.02
2018-02-02T05:13:30.085Z,5.26
2018-02-02T05:15:58.109Z,5.24
2018-02-02T05:18:25.604Z,5.31
2018-02-02T05:20:53.061Z,5.43
2018-02-02T05:23:20.497Z,5.12
2018-02-02T05:25:48.026Z,5.16
2018-02-02T05:28:15.464Z,5.33
2018-02-02T05:30:42.896Z,5.39
2018-02-02T05:33:10.403Z,4.92
2018-02-02T05:35:38.193Z,5.20
2018-02-02T05:38:05.756Z,5.22
2018-02-02T05:40:33.272Z,5.17
2018-02-02T05:43:00.692Z,5.20
2018-02-02T05:45:30.213Z,5.15
2018-02-02T05:47:59.726Z,5.23
2018-02-02T05:50:27.260Z,5.10
2018-02-02T05:52:54.672Z,5.16
2018-02-02T05:55:22.172Z,5.33
2018-02-02T05:57:49.590Z,5.25
2018-02-02T06:00:17.036Z,5.23
2018-02-02T06:02:45.384Z,5.23
2018-02-02T06:05:12.825Z,5.00
2018-02-02T06:07:40.611Z,5.11
2018-02-02T06:10:08.020Z,4.86
2018-02-02T06:12:36.468Z,4.99
2018-02-02T06:15:03.946Z,5.03
2018-02-02T06:17:31.484Z,5.20
2018-02-02T06:19:59.224Z,5.11
2018-02-02T06:22:26.782Z,5.02
2018-02-02T06:24:54.196Z,5.13
2018-02-02T06:27:21.684Z,5.05
2018-02-02T06:29:49.176Z,5.01
2018-02-02T06:32:16.596Z,4.98
2018-02-02T06:34:44.365Z,5.05
2018-02-02T06:37:11.805Z,4.94
2018-02-02T06:39:39.227Z,5.05
2018-02-02T06:42:06.668Z,4.98
2018-02-02T06:44:34.077Z,5.21
2018-02-02T06:47:01.514Z,5.16
2018-02-02T06:49:29.374Z,5.16
2018-02-02T06:51:57.094Z,5.03
2018-02-02T06:54:24.540Z,5.03
2018-02-02T06:56:56.222Z,4.97
2018-02-02T06:59:23.956Z,5.12
2018-02-02T07:01:51.369Z,5.03
2018-02-02T07:04:18.825Z,5.16
2018-02-02T07:06:46.282Z,5.04
2018-02-02T07:09:13.764Z,5.25
2018-02-02T07:11:41.198Z,4.99
2018-02-02T07:14:08.628Z,4.98
2018-02-02T07:16:36.085Z,5.12
2018-02-02T07:19:03.530Z,5.10
2018-02-02T07:21:31.004Z,5.26
2018-02-02T07:23:58.457Z,5.16
2018-02-02T07:26:25.882Z,5.30
2018-02-02T07:28:53.308Z,5.39
2018-02-02T07:31:20.724Z,5.13
2018-02-02T07:33:48.177Z,5.37
2018-02-02T07:36:15.690Z,5.03
2018-02-02T07:38:43.118Z,5.17
2018-02-02T07:41:10.564Z,5.21
2018-02-02T07:43:38.005Z,5.04
2018-02-02T07:46:05.470Z,4.83
2018-02-02T07:48:33.281Z,5.11
2018-02-02T07:51:00.721Z,5.19
2018-02-02T07:53:28.177Z,5.23
2018-02-02T07:55:55.600Z,5.37
2018-02-02T07:58:23.018Z,5.03
2018-02-02T08:00:56.101Z,5.20
2018-02-02T08:03:23.516Z,5.54
2018-02-02T08:05:51.018Z,5.14
2018-02-02T08:08:18.447Z,5.21
2018-02-02T08:10:45.884Z,5.18
2018-02-02T08:13:13.312Z,5.21
2018-02-02T08:15:40.744Z,5.08
2018-02-02T08:18:08.173Z,5.14
2018-02-02T08:20:35.608Z,5.27
2018-02-02T08:23:03.093Z,5.28
2018-02-02T08:25:30.548Z,5.09
2018-02-02T08:27:57.988Z,5.09
2018-02-02T08:30:25.409Z,5.28
2018-02-02T08:32:52.853Z,5.26
2018-02-02T08:35:20.279Z,4.95
2018-02-02T08:37:47.736Z,5.29
2018-02-02T08:40:15.165Z,5.22
2018-02-02T08:42:42.622Z,5.42
2018-02-02T08:45:10.106Z,5.22
2018-02-02T08:47:37.540Z,5.30
2018-02-02T08:50:04.968Z,5.51
2018-02-02T08:52:34.637Z,5.45
2018-02-02T08:55:02.076Z,5.44
2018-02-02T08:57:29.668Z,5.43
2018-02-02T08:59:57.082Z,5.38
2018-02-02T09:02:24.508Z,5.44
2018-02-02T09:04:52.012Z,5.27
2018-02-02T09:07:19.493Z,5.16
2018-02-02T09:09:46.980Z,5.21
2018-02-02T09:12:14.618Z,5.23
2018-02-02T09:14:42.113Z,5.42
2018-02-02T09:17:09.545Z,5.59
2018-02-02T09:19:36.998Z,5.85
2018-02-02T09:22:03.897Z,5.84
2018-02-02T09:24:31.356Z,5.82
2018-02-02T09:26:58.225Z,5.80
2018-02-02T09:29:25.670Z,5.79
2018-02-02T09:31:53.166Z,5.79
2018-02-02T09:34:20.621Z,5.86
2018-02-02T09:36:48.088Z,5.93
2018-02-02T09:39:15.585Z,6.14
2018-02-02T09:41:43.190Z,6.29
2018-02-02T09:44:10.640Z,6.18
2018-02-02T09:46:38.142Z,6.06
2018-02-02T09:49:05.598Z,6.14
2018-02-02T09:51:33.537Z,6.57
2018-02-02T09:54:00.997Z,6.38
2018-02-02T09:56:28.454Z,6.13
2018-02-02T09:58:55.882Z,6.34
2018-02-02T10:01:23.353Z,6.11
2018-02-02T10:03:50.811Z,6.40
2018-02-02T10:06:18.265Z,6.36
2018-02-02T10:08:45.698Z,6.37
2018-02-02T10:11:13.131Z,6.37
2018-02-02T10:13:40.569Z,6.17
2018-02-02T10:16:08.003Z,6.23
2018-02-02T10:18:35.677Z,6.00
2018-02-02T10:21:04.805Z,6.35
2018-02-02T10:23:32.245Z,6.17
2018-02-02T10:25:59.695Z,6.13
2018-02-02T10:28:27.147Z,6.09
2018-02-02T10:30:54.712Z,6.10
2018-02-02T10:33:22.273Z,6.23
2018-02-02T10:35:49.699Z,6.10
2018-02-02T10:38:17.152Z,6.09
2018-02-02T10:40:44.693Z,6.24
2018-02-02T10:43:14.825Z,6.25
2018-02-02T10:45:42.240Z,6.30
2018-02-02T10:48:09.677Z,6.07
2018-02-02T10:50:37.116Z,6.30
2018-02-02T10:53:04.751Z,6.44
2018-02-02T10:55:32.216Z,6.42
2018-02-02T10:57:59.673Z,6.45
2018-02-02T11:00:27.105Z,6.43
2018-02-02T11:03:00.156Z,6.52
2018-02-02T11:05:27.647Z,6.70
2018-02-02T11:07:55.225Z,6.88
2018-02-02T11:10:22.657Z,6.66
2018-02-02T11:12:50.136Z,6.79
2018-02-02T11:15:17.586Z,7.17
2018-02-02T11:17:45.105Z,6.91
2018-02-02T11:20:12.697Z,6.89
2018-02-02T11:22:40.281Z,6.84
2018-02-02T11:25:07.797Z,6.87
2018-02-02T11:27:35.441Z,6.68
2018-02-02T11:30:02.928Z,6.38
2018-02-02T11:32:30.521Z,6.75
2018-02-02T11:34:57.943Z,6.90
2018-02-02T11:37:25.425Z,6.87
2018-02-02T11:39:52.857Z,6.93
2018-02-02T11:42:20.409Z,6.70
2018-02-02T11:44:47.852Z,6.67
2018-02-02T11:47:15.374Z,6.47
2018-02-02T11:49:42.805Z,6.60
2018-02-02T11:52:10.398Z,6.55
2018-02-02T11:54:37.965Z,6.43
2018-02-02T11:57:05.405Z,6.46
2018-02-02T11:59:32.871Z,6.42
2018-02-02T12:02:00.409Z,6.45
2018-02-02T12:04:27.865Z,6.64
2018-02-02T12:06:55.407Z,6.12
2018-02-02T12:09:22.847Z,6.51
2018-02-02T12:11:50.736Z,6.54
2018-02-02T12:14:18.204Z,6.35
2018-02-02T12:16:45.717Z,6.11
2018-02-02T12:19:13.288Z,9.22
2018-02-02T12:21:40.789Z,10.53
2018-02-02T12:24:23.904Z,9.64
2018-02-02T12:27:07.441Z,7.80
2018-02-02T12:32:48.605Z,6.32
2018-02-02T12:35:18.004Z,7.60
2018-02-02T12:37:45.899Z,6.45
2018-02-02T12:40:13.337Z,6.18
2018-02-02T12:42:40.792Z,6.17
2018-02-02T12:45:08.265Z,6.27
2018-02-02T12:47:35.939Z,5.97
2018-02-02T12:50:07.244Z,6.16
2018-02-02T12:52:34.777Z,6.20
2018-02-02T12:55:02.227Z,5.97
2018-02-02T12:57:29.738Z,6.16
2018-02-02T12:59:57.240Z,6.20
2018-02-02T13:02:25.031Z,6.25
2018-02-02T13:04:52.518Z,5.74
2018-02-02T13:07:20.065Z,5.25
2018-02-02T13:09:47.669Z,5.97
2018-02-02T13:12:16.102Z,6.19
2018-02-02T13:14:43.678Z,7.00
2018-02-02T13:17:11.153Z,7.15
2018-02-02T13:19:38.628Z,7.98
2018-02-02T13:22:07.115Z,-145.69
2018-02-02T13:24:34.763Z,-145.69
2018-02-02T13:27:02.262Z,-145.69
2018-02-02T13:29:30.116Z,-145.69
2018-02-02T13:31:57.555Z,-145.69
2018-02-02T13:34:25.039Z,-145.69
2018-02-02T13:36:52.499Z,-145.69
2018-02-02T13:39:20.304Z,-145.69
2018-02-02T13:41:47.782Z,-145.69
2018-02-02T13:44:15.326Z,-145.69
2018-02-02T13:46:43.750Z,-145.69
2018-02-02T13:49:11.221Z,-145.69
2018-02-02T13:51:38.782Z,-145.69
2018-02-02T13:54:06.330Z,-145.69
2018-02-02T13:56:34.956Z,-145.69
2018-02-02T13:59:02.504Z,-145.69
2018-02-02T14:01:30.128Z,-145.69
2018-02-02T14:03:57.712Z,-145.69
2018-02-02T14:06:27.198Z,-145.69
2018-02-02T14:08:55.385Z,-145.69
2018-02-02T14:11:22.911Z,9.16
2018-02-02T14:13:50.398Z,-145.69
2018-02-02T14:16:17.844Z,-145.69
2018-02-02T14:18:45.372Z,-145.69
2018-02-02T14:21:13.029Z,-145.69
2018-02-02T14:23:40.888Z,-145.69
2018-02-02T14:26:08.380Z,-145.69
2018-02-02T14:28:35.848Z,-145.69
2018-02-02T14:31:04.790Z,-145.69
2018-02-02T14:33:52.344Z,-145.69
2018-02-02T14:36:20.078Z,-145.69
2018-02-02T14:38:47.592Z,-145.69
2018-02-02T14:41:15.214Z,-145.69
2018-02-02T14:43:42.692Z,-145.69
2018-02-02T14:46:10.432Z,-145.69
2018-02-02T14:48:37.932Z,-145.69
2018-02-02T14:51:07.136Z,-145.69
2018-02-02T14:53:34.995Z,-145.69
2018-02-02T14:56:02.493Z,-145.69
2018-02-02T14:58:30.013Z,-145.69
2018-02-02T15:00:57.466Z,-145.69
2018-02-02T15:03:24.954Z,-145.69
2018-02-02T15:05:52.423Z,-145.69
2018-02-02T15:08:19.868Z,-145.69
2018-02-02T15:10:47.337Z,-145.69
2018-02-02T15:13:14.780Z,-145.69
2018-02-02T15:15:42.252Z,-145.69
2018-02-02T15:18:09.789Z,-145.69
2018-02-02T15:20:37.263Z,-145.69
2018-02-02T15:23:07.658Z,-145.69
2018-02-02T15:25:35.244Z,-145.69
2018-02-02T15:28:03.123Z,-145.69
2018-02-02T15:30:30.634Z,-145.69
2018-02-02T15:32:58.255Z,-145.69
2018-02-02T15:35:25.720Z,-145.69
2018-02-02T15:37:53.194Z,-145.69
2018-02-02T15:40:20.663Z,-145.69
2018-02-02T15:42:53.348Z,-145.69
2018-02-02T15:45:25.019Z,-145.69
2018-02-02T15:47:52.789Z,-145.69
2018-02-02T15:50:20.677Z,-145.69
2018-02-02T15:52:48.253Z,-145.69
2018-02-02T15:55:15.695Z,-145.69
2018-02-02T15:57:43.165Z,-145.69
2018-02-02T16:00:10.624Z,-145.69
2018-02-02T16:02:38.112Z,-145.69
2018-02-02T16:05:05.576Z,-145.69
2018-02-02T16:07:33.048Z,-145.69
2018-02-02T16:10:00.529Z,-145.69
2018-02-02T16:12:28.082Z,-145.69
2018-02-02T16:14:55.539Z,-145.69
2018-02-02T16:17:23.003Z,-145.69
2018-02-02T16:19:50.485Z,-145.69
2018-02-02T16:22:18.008Z,-145.69
2018-02-02T16:24:45.469Z,-145.69
2018-02-02T16:27:12.960Z,-145.69
2018-02-02T16:29:40.721Z,-145.69
2018-02-02T16:32:11.520Z,-145.69
2018-02-02T16:34:41.086Z,-145.69
2018-02-02T16:37:08.665Z,-145.69
2018-02-02T16:39:36.709Z,-145.69
2018-02-02T16:42:04.320Z,-145.69
2018-02-02T16:44:31.780Z,-145.69
2018-02-02T16:46:59.251Z,-145.69
2018-02-02T16:49:26.971Z,-145.69
2018-02-02T16:51:54.586Z,-145.69
2018-02-02T16:54:22.080Z,-145.69
2018-02-02T16:56:49.548Z,-145.69
2018-02-02T16:59:17.368Z,-145.69
2018-02-02T17:01:44.833Z,-145.69
2018-02-02T17:04:12.305Z,-145.69
2018-02-02T17:06:40.106Z,-145.69
2018-02-02T17:09:09.572Z,-145.69
2018-02-02T17:11:40.692Z,-145.69
2018-02-02T17:14:08.179Z,-145.69
2018-02-02T17:16:41.158Z,-145.69
2018-02-02T17:19:08.652Z,-145.69
2018-02-02T17:21:40.053Z,-145.69
2018-02-02T17:24:09.484Z,-145.69
2018-02-02T17:26:38.990Z,-145.69
2018-02-02T17:29:06.585Z,-145.69
2018-02-02T17:31:34.091Z,-145.69
2018-02-02T17:34:01.566Z,-145.69
2018-02-02T17:36:29.017Z,-145.69
2018-02-02T17:39:01.965Z,-145.69
2018-02-02T17:41:29.418Z,-145.69
2018-02-02T17:43:59.028Z,-145.69
2018-02-02T17:46:26.495Z,-145.69
2018-02-02T17:48:59.703Z,-145.69
2018-02-02T17:51:29.464Z,-145.69
2018-02-02T17:53:57.012Z,-145.69
2018-02-02T17:56:24.593Z,-145.69
2018-02-02T17:58:52.109Z,-145.69
2018-02-02T18:01:25.561Z,-145.69
2018-02-02T18:03:53.052Z,-145.69
2018-02-02T18:06:20.594Z,-145.69
2018-02-02T18:08:48.063Z,-145.69
2018-02-02T18:11:15.547Z,-145.69
2018-02-02T18:13:43.769Z,-145.69
2018-02-02T18:16:11.269Z,-145.69
2018-02-02T18:18:38.732Z,-145.69
2018-02-02T18:21:07.928Z,-145.69
2018-02-02T18:23:37.797Z,-145.69
2018-02-02T18:26:05.945Z,-145.69
2018-02-02T18:28:33.480Z,-145.69
2018-02-02T18:31:02.142Z,-145.69
2018-02-02T18:33:29.859Z,-145.69
2018-02-02T18:35:57.317Z,-145.69
2018-02-02T18:38:24.785Z,-145.69
2018-02-02T18:40:52.555Z,-145.69
2018-02-02T18:43:20.189Z,-145.69
2018-02-02T18:45:47.738Z,-145.69
2018-02-02T18:48:15.256Z,-145.69
2018-02-02T18:50:42.749Z,-145.69
2018-02-02T18:53:10.220Z,-145.69
2018-02-02T18:55:37.676Z,-145.69
2018-02-02T18:58:06.085Z,-145.69
2018-02-02T19:00:33.535Z,-145.69
2018-02-02T19:03:02.686Z,-145.69
2018-02-02T19:05:30.376Z,-145.69
2018-02-02T19:07:58.160Z,-145.69
2018-02-02T19:10:25.698Z,-145.69
2018-02-02T19:12:53.247Z,-145.69
2018-02-02T19:15:20.694Z,-145.69
2018-02-02T19:17:48.156Z,-145.69
2018-02-02T19:20:16.169Z,-145.69
2018-02-02T19:22:43.660Z,-145.69
2018-02-02T19:25:11.194Z,-145.69
2018-02-02T19:27:38.640Z,-145.69
2018-02-02T19:30:06.197Z,-145.69
2018-02-02T19:32:33.759Z,-145.69
2018-02-02T19:35:01.216Z,-145.69
2018-02-02T19:37:28.675Z,-145.69
2018-02-02T19:39:57.169Z,-145.69
2018-02-02T19:42:24.645Z,-145.69
2018-02-02T19:44:52.842Z,-145.69
2018-02-02T19:47:20.320Z,-145.69
2018-02-02T19:49:47.847Z,-145.69
2018-02-02T19:52:15.978Z,-145.69
2018-02-02T19:54:43.488Z,-145.69
2018-02-02T19:57:15.484Z,-145.69
2018-02-02T19:59:42.967Z,-145.69
2018-02-02T20:02:10.416Z,-145.69
2018-02-02T20:04:37.882Z,-145.69
2018-02-02T20:07:05.389Z,-145.69
2018-02-02T20:09:32.876Z,-145.69
2018-02-02T20:12:00.340Z,-145.69
2018-02-02T20:14:27.801Z,-145.69
2018-02-02T20:16:55.297Z,-145.69
2018-02-02T20:19:22.801Z,-145.69
2018-02-02T20:21:51.264Z,-145.69
2018-02-02T20:24:19.004Z,-145.69
2018-02-02T20:26:46.489Z,-145.69
2018-02-02T20:29:14.003Z,-145.69
2018-02-02T20:31:41.443Z,-145.69
2018-02-02T20:34:08.901Z,-145.69
2018-02-02T20:36:36.438Z,-145.69
2018-02-02T20:39:03.938Z,-145.69
2018-02-02T20:41:31.396Z,-145.69
2018-02-02T20:43:58.998Z,-145.69
2018-02-02T20:46:26.452Z,-145.69
2018-02-02T20:48:54.846Z,-145.69
2018-02-02T20:51:22.301Z,-145.69
2018-02-02T20:53:49.808Z,-145.69
2018-02-02T20:56:17.285Z,-145.69
2018-02-02T20:58:44.746Z,-145.69
2018-02-02T21:01:12.190Z,-145.69
2018-02-02T21:03:39.644Z,-145.69
2018-02-02T21:06:07.090Z,-145.69
2018-02-02T21:08:34.595Z,-145.69
2018-02-02T21:11:02.072Z,-145.69
2018-02-02T21:13:29.548Z,-145.69
2018-02-02T21:15:57.038Z,-145.69
2018-02-02T21:18:24.512Z,-145.69
2018-02-02T21:20:51.948Z,-145.69
2018-02-02T21:23:19.426Z,-145.69
2018-02-02T21:25:46.881Z,-145.69
2018-02-02T21:28:14.411Z,-145.69
2018-02-02T21:30:41.859Z,-145.69
2018-02-02T21:33:09.353Z,-145.69
2018-02-02T21:35:37.088Z,-145.69
2018-02-02T21:38:04.648Z,-145.69
2018-02-02T21:40:32.138Z,-145.69
2018-02-02T21:42:59.663Z,-145.69
2018-02-02T21:45:27.160Z,-145.69
2018-02-02T21:47:54.625Z,-145.69
2018-02-02T21:50:22.080Z,-145.69
2018-02-02T21:52:49.538Z,-145.69
2018-02-02T21:55:17.009Z,-145.69
2018-02-02T21:57:44.460Z,-145.69
2018-02-02T22:00:11.993Z,-145.69
2018-02-02T22:02:39.457Z,-145.69
2018-02-02T22:05:07.428Z,-145.69
2018-02-02T22:07:34.899Z,-145.69
2018-02-02T22:10:02.394Z,-145.69
2018-02-02T22:12:29.849Z,-145.69
2018-02-02T22:14:57.295Z,-145.69
2018-02-02T22:17:24.785Z,-145.69
2018-02-02T22:19:52.240Z,-145.69
2018-02-02T22:22:19.814Z,-145.69
2018-02-02T22:24:47.273Z,-145.69
2018-02-02T22:27:14.794Z,-145.69
2018-02-02T22:29:42.268Z,-145.69
2018-02-02T22:32:09.779Z,-145.69
2018-02-02T22:34:38.506Z,-145.69
2018-02-02T22:37:07.019Z,-145.69
2018-02-02T22:39:34.556Z,-145.69
2018-02-02T22:42:02.026Z,-145.69
2018-02-02T22:44:29.724Z,-145.69
2018-02-02T22:46:57.221Z,-145.69
2018-02-02T22:49:24.665Z,-145.69
2018-02-02T22:51:52.173Z,-145.69
2018-02-02T22:54:19.629Z,-145.69
2018-02-02T22:56:47.114Z,-145.69
2018-02-02T22:59:14.665Z,-145.69
2018-02-02T23:01:42.125Z,-145.69
2018-02-02T23:04:09.583Z,-145.69
2018-02-02T23:06:37.119Z,-145.69
2018-02-02T23:09:04.592Z,-145.69
2018-02-02T23:11:32.341Z,-145.69
2018-02-02T23:14:00.921Z,-145.69
2018-02-02T23:16:28.528Z,-145.69
2018-02-02T23:18:55.996Z,-145.69
2018-02-02T23:21:23.447Z,-145.69
2018-02-02T23:23:51.381Z,-145.69
2018-02-02T23:26:18.820Z,-145.69
2018-02-02T23:28:46.310Z,-145.69
2018-02-02T23:31:13.755Z,-145.69
2018-02-02T23:33:41.221Z,-145.69
2018-02-02T23:36:08.757Z,-145.69
2018-02-02T23:38:37.141Z,-145.69
2018-02-02T23:41:04.593Z,-145.69
2018-02-02T23:43:32.049Z,-145.69
2018-02-02T23:45:59.573Z,-145.69
2018-02-02T23:48:27.089Z,-145.69
2018-02-02T23:50:54.558Z,-145.69
2018-02-02T23:53:22.009Z,-145.69
2018-02-02T23:55:49.472Z,-145.69
2018-02-02T23:58:16.935Z,-145.69
